Time;durP1;ratioP1;P1;durP2;ratioP2;P2;SDS_P1;SDS_P2;PMS_P1;PMS_P2;Temp;Humidity;BMP_temperature;BMP_pressure;BME280_temperature;BME280_humidity;BME280_pressure;Samples;Min_cycle;Max_cycle;Signal;HPM_P1;HPM_P2
2022/11/15 00:03:13;;;;;;;11.73;7.57;;;;;;;;;;10469613;28;20049;-78
2022/11/15 00:08:32;;;;;;;10.95;6.88;;;;;;;;;;10477628;28;20503;-79
2022/11/15 00:13:54;;;;;;;9.05;7.20;;;;;;;;;;10481835;28;20048;-78
2022/11/15 00:19:13;;;;;;;9.63;7.22;;;;;;;;;;10470081;28;20469;-81
2022/11/15 00:24:32;;;;;;;16.10;9.30;;;;;;;;;;10474141;28;20050;-78
2022/11/15 00:29:51;;;;;;;8.50;6.60;;;;;;;;;;10475530;28;20041;-79
2022/11/15 00:35:10;;;;;;;10.70;7.28;;;;;;;;;;10468054;28;20032;-79
2022/11/15 00:40:29;;;;;;;9.95;6.95;;;;;;;;;;10468353;28;20044;-79
2022/11/15 00:45:49;;;;;;;10.23;7.10;;;;;;;;;;10474143;28;20072;-80
2022/11/15 00:51:08;;;;;;;9.82;7.10;;;;;;;;;;10478224;28;20029;-81
2022/11/15 00:56:29;;;;;;;11.13;6.90;;;;;;;;;;10479060;28;20094;-78
2022/11/15 01:01:48;;;;;;;10.23;6.70;;;;;;;;;;10474293;28;20064;-78
2022/11/15 01:07:07;;;;;;;9.70;6.68;;;;;;;;;;10478003;28;20074;-78
2022/11/15 01:12:26;;;;;;;11.23;7.22;;;;;;;;;;10472852;28;20500;-78
2022/11/15 01:17:45;;;;;;;10.13;6.75;;;;;;;;;;10479724;28;20131;-77
2022/11/15 01:23:04;;;;;;;9.07;6.78;;;;;;;;;;10478674;28;20037;-77
2022/11/15 01:28:22;;;;;;;9.63;6.82;;;;;;;;;;10494320;28;20080;-78
2022/11/15 01:33:41;;;;;;;10.68;6.97;;;;;;;;;;10496001;28;20462;-77
2022/11/15 01:39:00;;;;;;;8.75;6.13;;;;;;;;;;10494288;28;20037;-77
2022/11/15 01:44:46;;;;;;;10.40;8.00;;;;;;;;;;10494167;28;20120;-77
2022/11/15 01:50:10;;;;;;;9.30;6.63;;;;;;;;;;10482270;28;20173;-77
2022/11/15 01:55:29;;;;;;;9.35;6.53;;;;;;;;;;10466943;28;20048;-78
2022/11/15 02:00:49;;;;;;;10.25;6.70;;;;;;;;;;10479198;28;20107;-78
2022/11/15 02:06:08;;;;;;;11.07;7.82;;;;;;;;;;10494627;28;20413;-77
2022/11/15 02:11:28;;;;;;;10.10;7.00;;;;;;;;;;10490565;28;20044;-77
2022/11/15 02:16:58;;;;;;;9.52;7.05;;;;;;;;;;10488501;28;20032;-79
2022/11/15 02:22:26;;;;;;;9.27;6.45;;;;;;;;;;10493943;28;20033;-79
2022/11/15 02:27:52;;;;;;;12.95;7.82;;;;;;;;;;10513437;28;20053;-79
2022/11/15 02:33:13;;;;;;;12.50;7.50;;;;;;;;;;10502101;28;20040;-79
2022/11/15 02:38:38;;;;;;;9.63;6.88;;;;;;;;;;10480977;28;20056;-78
2022/11/15 02:44:16;;;;;;;10.98;7.53;;;;;;;;;;10474490;28;20045;-77
2022/11/15 02:49:37;;;;;;;10.88;7.40;;;;;;;;;;10486884;28;20045;-79
2022/11/15 02:54:57;;;;;;;12.80;6.93;;;;;;;;;;10474751;28;20095;-78
2022/11/15 03:00:18;;;;;;;11.07;7.00;;;;;;;;;;10480352;28;20029;-78
2022/11/15 03:06:12;;;;;;;9.90;6.25;;;;;;;;;;10485692;28;20049;-78
2022/11/15 03:11:34;;;;;;;8.40;5.78;;;;;;;;;;10411589;28;20045;-77
2022/11/15 03:17:10;;;;;;;9.95;7.15;;;;;;;;;;10465178;28;20049;-79
2022/11/15 03:22:33;;;;;;;9.48;6.43;;;;;;;;;;10479218;28;20115;-81
2022/11/15 03:27:53;;;;;;;9.88;6.97;;;;;;;;;;10488004;28;20048;-79
2022/11/15 03:33:12;;;;;;;8.82;6.20;;;;;;;;;;10486302;28;20040;-77
2022/11/15 03:38:32;;;;;;;8.73;6.50;;;;;;;;;;10477574;28;20044;-80
2022/11/15 03:44:18;;;;;;;11.23;6.60;;;;;;;;;;10485337;28;20115;-78
2022/11/15 03:49:40;;;;;;;9.57;5.97;;;;;;;;;;10467797;28;20071;-80
2022/11/15 03:55:00;;;;;;;9.55;6.03;;;;;;;;;;10490676;28;20029;-79
2022/11/15 04:00:19;;;;;;;11.13;6.82;;;;;;;;;;10494090;28;20500;-80
2022/11/15 04:05:38;;;;;;;9.25;6.60;;;;;;;;;;10515404;28;20087;-76
2022/11/15 04:10:57;;;;;;;13.57;8.82;;;;;;;;;;10489349;28;20353;-77
2022/11/15 04:16:16;;;;;;;11.18;7.90;;;;;;;;;;10481876;28;20040;-78
2022/11/15 04:27:13;;;;;;;9.80;7.20;;;;;;;;;;10464274;28;20060;-77
2022/11/15 04:32:33;;;;;;;11.43;6.78;;;;;;;;;;10476762;28;20487;-77
2022/11/15 04:37:54;;;;;;;12.82;7.57;;;;;;;;;;10480417;28;20028;-80
2022/11/15 04:43:13;;;;;;;10.13;6.80;;;;;;;;;;10476573;28;20045;-79
2022/11/15 04:48:32;;;;;;;10.63;6.72;;;;;;;;;;10473816;28;20049;-79
2022/11/15 04:53:52;;;;;;;9.95;6.93;;;;;;;;;;10475338;28;20045;-78
2022/11/15 04:59:11;;;;;;;10.23;7.22;;;;;;;;;;10465830;28;20045;-77
2022/11/15 05:04:30;;;;;;;9.40;6.88;;;;;;;;;;10471902;28;20032;-76
2022/11/15 05:09:49;;;;;;;11.57;7.25;;;;;;;;;;10471172;28;20143;-77
2022/11/15 05:15:08;;;;;;;9.93;6.97;;;;;;;;;;10475693;28;20040;-77
2022/11/15 05:20:27;;;;;;;8.27;6.28;;;;;;;;;;10465104;28;20041;-77
2022/11/15 05:25:46;;;;;;;8.80;6.85;;;;;;;;;;10472950;28;20463;-77
2022/11/15 05:31:06;;;;;;;11.55;7.45;;;;;;;;;;10466375;28;20041;-77
2022/11/15 05:36:40;;;;;;;12.40;8.95;;;;;;;;;;10481478;28;20041;-79
2022/11/15 05:42:05;;;;;;;12.63;8.23;;;;;;;;;;10483399;28;20032;-79
2022/11/15 05:47:25;;;;;;;11.07;7.05;;;;;;;;;;10457401;28;20480;-79
2022/11/15 05:52:45;;;;;;;9.75;6.78;;;;;;;;;;10477580;28;20457;-78
2022/11/15 05:58:03;;;;;;;10.57;7.43;;;;;;;;;;10489510;28;20032;-78
2022/11/15 06:03:22;;;;;;;9.20;6.95;;;;;;;;;;10485514;28;20044;-79
2022/11/15 06:08:41;;;;;;;10.73;7.70;;;;;;;;;;10472788;28;20128;-76
2022/11/15 06:14:00;;;;;;;12.00;7.95;;;;;;;;;;10469635;28;20037;-78
2022/11/15 06:19:19;;;;;;;11.05;7.15;;;;;;;;;;10481443;28;20059;-78
2022/11/15 06:24:39;;;;;;;14.38;9.25;;;;;;;;;;10484513;28;20472;-77
2022/11/15 06:29:58;;;;;;;15.27;10.07;;;;;;;;;;10476089;28;20041;-77
2022/11/15 06:35:17;;;;;;;17.90;12.50;;;;;;;;;;10479260;28;20040;-78
2022/11/15 06:40:37;;;;;;;17.17;12.30;;;;;;;;;;10478409;28;20037;-79
2022/11/15 06:45:57;;;;;;;15.48;9.80;;;;;;;;;;10484165;28;20048;-78
2022/11/15 06:51:16;;;;;;;13.23;8.52;;;;;;;;;;10472736;28;20548;-77
2022/11/15 06:56:35;;;;;;;10.90;7.05;;;;;;;;;;10477284;28;20056;-76
2022/11/15 07:01:54;;;;;;;12.95;8.95;;;;;;;;;;10475189;28;20044;-78
2022/11/15 07:07:13;;;;;;;14.55;9.30;;;;;;;;;;10485278;28;20524;-77
2022/11/15 07:12:32;;;;;;;14.68;9.60;;;;;;;;;;10478333;28;20044;-77
2022/11/15 07:17:51;;;;;;;14.07;10.15;;;;;;;;;;10470168;28;20040;-77
2022/11/15 07:23:11;;;;;;;16.35;10.85;;;;;;;;;;10476412;28;20037;-77
2022/11/15 07:28:30;;;;;;;14.65;9.82;;;;;;;;;;10485453;28;20057;-79
2022/11/15 07:33:49;;;;;;;20.48;12.73;;;;;;;;;;10483761;28;20044;-77
2022/11/15 07:39:09;;;;;;;16.10;10.93;;;;;;;;;;10482303;28;20032;-80
2022/11/15 07:44:29;;;;;;;16.02;10.82;;;;;;;;;;10478679;28;20041;-78
2022/11/15 07:49:48;;;;;;;13.10;10.00;;;;;;;;;;10464893;28;20048;-79
2022/11/15 07:55:08;;;;;;;14.65;9.65;;;;;;;;;;10480703;28;20040;-78
2022/11/15 08:00:27;;;;;;;15.07;9.30;;;;;;;;;;10475197;28;20425;-79
2022/11/15 08:05:50;;;;;;;12.38;9.35;;;;;;;;;;10479920;28;20044;-80
2022/11/15 08:11:08;;;;;;;13.45;9.60;;;;;;;;;;10482255;28;20032;-80
2022/11/15 08:16:27;;;;;;;12.90;8.93;;;;;;;;;;10484082;28;20036;-80
2022/11/15 08:21:48;;;;;;;11.38;7.88;;;;;;;;;;10478904;28;20473;-79
2022/11/15 08:27:14;;;;;;;9.50;7.63;;;;;;;;;;10480686;28;20061;-79
2022/11/15 08:32:33;;;;;;;8.23;6.72;;;;;;;;;;10475497;28;20044;-79
2022/11/15 08:37:53;;;;;;;11.65;7.88;;;;;;;;;;10473456;28;20148;-79
2022/11/15 08:43:11;;;;;;;13.88;8.48;;;;;;;;;;10487083;28;20036;-79
2022/11/15 08:48:30;;;;;;;10.55;7.68;;;;;;;;;;10482694;28;20081;-79
2022/11/15 08:53:49;;;;;;;9.60;7.75;;;;;;;;;;10476221;28;20516;-80
2022/11/15 08:59:08;;;;;;;9.57;7.35;;;;;;;;;;10485667;28;20040;-79
2022/11/15 09:04:27;;;;;;;14.32;8.82;;;;;;;;;;10493504;28;20032;-78
2022/11/15 09:09:46;;;;;;;11.93;8.45;;;;;;;;;;10491578;28;20155;-80
2022/11/15 09:15:06;;;;;;;12.50;8.85;;;;;;;;;;10478220;28;20468;-80
2022/11/15 09:20:24;;;;;;;11.13;8.02;;;;;;;;;;10484759;28;20123;-81
2022/11/15 09:25:43;;;;;;;10.80;8.15;;;;;;;;;;10476076;28;20416;-80
2022/11/15 09:31:04;;;;;;;9.40;7.45;;;;;;;;;;10497833;28;20036;-80
2022/11/15 09:36:23;;;;;;;11.82;7.50;;;;;;;;;;10508822;28;20033;-79
2022/11/15 09:41:58;;;;;;;8.52;6.70;;;;;;;;;;10523850;28;20105;-79
2022/11/15 09:47:20;;;;;;;8.95;6.97;;;;;;;;;;10498642;28;20080;-79
2022/11/15 09:52:51;;;;;;;10.20;7.20;;;;;;;;;;10473914;28;20515;-81
2022/11/15 09:58:00;;;;;;;10.02;7.15;;;;;;;;;;10481443;28;20032;-79
2022/11/15 10:03:18;;;;;;;11.02;7.53;;;;;;;;;;10486368;28;20177;-80
2022/11/15 10:08:26;;;;;;;12.35;7.88;;;;;;;;;;10463323;28;20776;-79
2022/11/15 10:13:30;;;;;;;9.13;7.15;;;;;;;;;;10478156;28;20040;-76
2022/11/15 10:18:49;;;;;;;10.50;7.13;;;;;;;;;;10456303;28;20127;-79
2022/11/15 10:23:50;;;;;;;9.18;7.25;;;;;;;;;;10505348;28;20048;-77
2022/11/15 10:28:51;;;;;;;9.05;6.47;;;;;;;;;;10512891;28;20352;-76
2022/11/15 10:33:57;;;;;;;9.65;6.55;;;;;;;;;;10531063;28;20036;-77
2022/11/15 10:38:57;;;;;;;9.23;6.68;;;;;;;;;;10492511;28;20059;-80
2022/11/15 10:44:01;;;;;;;7.63;6.00;;;;;;;;;;10465107;28;20040;-79
2022/11/15 10:49:13;;;;;;;7.20;5.88;;;;;;;;;;10480983;28;20059;-79
2022/11/15 10:54:23;;;;;;;9.43;6.05;;;;;;;;;;10483605;28;20364;-78
2022/11/15 10:59:26;;;;;;;7.38;4.75;;;;;;;;;;10463081;28;20041;-78
2022/11/15 11:04:28;;;;;;;5.57;4.72;;;;;;;;;;10474786;28;20037;-79
2022/11/15 11:09:33;;;;;;;5.40;4.72;;;;;;;;;;10477942;28;20098;-80
2022/11/15 11:14:34;;;;;;;8.25;5.05;;;;;;;;;;10489867;28;20155;-79
2022/11/15 11:19:58;;;;;;;6.07;4.30;;;;;;;;;;10480281;28;20483;-79
2022/11/15 11:25:19;;;;;;;5.85;4.50;;;;;;;;;;10485934;28;20063;-79
2022/11/15 11:30:51;;;;;;;8.18;4.93;;;;;;;;;;10496615;28;20022;-79
2022/11/15 11:36:02;;;;;;;5.13;4.43;;;;;;;;;;10479971;28;20839;-80
2022/11/15 11:41:20;;;;;;;7.10;3.90;;;;;;;;;;10519114;28;20028;-80
2022/11/15 11:46:29;;;;;;;5.28;4.25;;;;;;;;;;10517751;28;20067;-80
2022/11/15 11:51:38;;;;;;;6.05;4.00;;;;;;;;;;10516470;28;20484;-82
2022/11/15 11:56:41;;;;;;;5.63;4.00;;;;;;;;;;10536928;28;20043;-80
2022/11/15 12:01:42;;;;;;;4.72;3.80;;;;;;;;;;10542938;28;20044;-79
2022/11/15 12:06:43;;;;;;;5.32;3.90;;;;;;;;;;10532478;28;20056;-80
2022/11/15 12:12:02;;;;;;;5.05;4.28;;;;;;;;;;10504045;28;20471;-81
2022/11/15 12:17:03;;;;;;;4.80;4.05;;;;;;;;;;10486022;28;20096;-81
2022/11/15 12:22:03;;;;;;;4.60;3.55;;;;;;;;;;10467238;28;20174;-80
2022/11/15 12:27:06;;;;;;;5.32;3.90;;;;;;;;;;10492596;28;20091;-80
2022/11/15 12:32:26;;;;;;;4.25;3.70;;;;;;;;;;10472155;28;20044;-82
2022/11/15 12:37:43;;;;;;;4.63;3.65;;;;;;;;;;10468660;28;20028;-83
2022/11/15 12:42:59;;;;;;;6.25;4.20;;;;;;;;;;10486668;28;20037;-82
2022/11/15 12:48:15;;;;;;;5.80;4.70;;;;;;;;;;10489955;28;20036;-83
2022/11/15 12:53:24;;;;;;;6.13;3.92;;;;;;;;;;10485469;28;20041;-81
2022/11/15 12:58:40;;;;;;;7.13;4.60;;;;;;;;;;10480460;28;20025;-79
2022/11/15 13:04:00;;;;;;;4.20;3.80;;;;;;;;;;10485838;28;20025;-81
2022/11/15 13:09:01;;;;;;;4.75;3.58;;;;;;;;;;10494785;28;20040;-83
2022/11/15 13:14:23;;;;;;;14.43;10.70;;;;;;;;;;10489932;28;20032;-80
2022/11/15 13:19:24;;;;;;;5.72;4.32;;;;;;;;;;10467106;28;20040;-81
2022/11/15 13:24:25;;;;;;;4.20;3.80;;;;;;;;;;10480510;28;20035;-80
2022/11/15 13:29:25;;;;;;;8.55;6.07;;;;;;;;;;10476001;28;20044;-79
2022/11/15 13:34:36;;;;;;;5.63;4.60;;;;;;;;;;10480605;28;20036;-80
2022/11/15 13:39:37;;;;;;;5.30;3.70;;;;;;;;;;10473296;28;20064;-79
2022/11/15 13:44:38;;;;;;;8.80;5.57;;;;;;;;;;10484035;28;20436;-79
2022/11/15 13:49:38;;;;;;;6.85;5.30;;;;;;;;;;10477500;28;20105;-82
2022/11/15 13:54:45;;;;;;;5.30;4.35;;;;;;;;;;10471751;28;20025;-81
2022/11/15 13:59:52;;;;;;;4.70;3.75;;;;;;;;;;10460712;28;20065;-80
2022/11/15 14:05:01;;;;;;;4.18;3.22;;;;;;;;;;10477477;28;20075;-78
2022/11/15 14:10:22;;;;;;;4.32;3.63;;;;;;;;;;10475791;28;20029;-79
2022/11/15 14:15:28;;;;;;;4.18;3.78;;;;;;;;;;10451737;28;20088;-79
2022/11/15 14:20:33;;;;;;;5.35;3.40;;;;;;;;;;10494870;28;20420;-80
2022/11/15 14:25:35;;;;;;;3.83;3.10;;;;;;;;;;10465401;28;20480;-77
2022/11/15 14:30:35;;;;;;;4.55;3.70;;;;;;;;;;10484355;28;20128;-78
2022/11/15 14:35:38;;;;;;;5.28;3.55;;;;;;;;;;10486451;28;20036;-82
2022/11/15 14:40:38;;;;;;;5.43;3.97;;;;;;;;;;10476579;28;20029;-80
2022/11/15 14:45:39;;;;;;;5.63;3.88;;;;;;;;;;10459547;28;20033;-79
2022/11/15 14:50:39;;;;;;;5.47;3.47;;;;;;;;;;10465984;28;20063;-80
2022/11/15 14:55:40;;;;;;;5.82;3.85;;;;;;;;;;10490912;28;20029;-79
2022/11/15 15:00:41;;;;;;;6.60;3.88;;;;;;;;;;10482502;28;20032;-78
2022/11/15 15:05:43;;;;;;;6.15;4.63;;;;;;;;;;10465703;28;20048;-83
2022/11/15 15:10:44;;;;;;;7.47;5.13;;;;;;;;;;10492995;28;20063;-80
2022/11/15 15:15:45;;;;;;;6.38;4.57;;;;;;;;;;10507506;28;20298;-80
2022/11/15 15:20:49;;;;;;;6.70;5.13;;;;;;;;;;10480811;28;20149;-78
2022/11/15 15:25:52;;;;;;;6.20;4.55;;;;;;;;;;10488955;28;20160;-81
2022/11/15 15:30:53;;;;;;;6.38;4.95;;;;;;;;;;10500987;28;20041;-78
2022/11/15 15:35:53;;;;;;;7.23;4.83;;;;;;;;;;10511240;28;20040;-79
2022/11/15 15:40:55;;;;;;;13.88;8.52;;;;;;;;;;10487066;28;20016;-82
2022/11/15 15:45:55;;;;;;;8.63;6.82;;;;;;;;;;10472450;28;20131;-79
2022/11/15 15:50:56;;;;;;;7.67;5.90;;;;;;;;;;10479684;28;20060;-78
2022/11/15 15:55:56;;;;;;;8.32;5.13;;;;;;;;;;10460931;28;20800;-79
2022/11/15 16:00:56;;;;;;;6.80;5.38;;;;;;;;;;10490265;28;20033;-78
2022/11/15 16:05:58;;;;;;;7.22;5.68;;;;;;;;;;10475973;28;20041;-81
2022/11/15 16:10:58;;;;;;;9.33;6.77;;;;;;;;;;10458966;28;20028;-79
2022/11/15 16:16:00;;;;;;;15.07;9.25;;;;;;;;;;10466550;28;20278;-78
2022/11/15 16:21:01;;;;;;;12.15;7.75;;;;;;;;;;10486211;28;20420;-79
2022/11/15 16:26:03;;;;;;;10.13;7.70;;;;;;;;;;10463272;28;20048;-80
2022/11/15 16:31:10;;;;;;;10.27;7.00;;;;;;;;;;10461875;28;20128;-82
2022/11/15 16:36:25;;;;;;;9.93;7.18;;;;;;;;;;10475388;28;20094;-78
2022/11/15 16:41:26;;;;;;;10.15;7.28;;;;;;;;;;10487557;28;20029;-79
2022/11/15 16:46:27;;;;;;;9.15;6.88;;;;;;;;;;10482470;28;20040;-81
2022/11/15 16:51:27;;;;;;;10.98;7.70;;;;;;;;;;10474418;28;20037;-78
2022/11/15 16:56:28;;;;;;;8.85;7.57;;;;;;;;;;10457850;28;20041;-79
2022/11/15 17:01:34;;;;;;;11.18;8.90;;;;;;;;;;10464395;28;20408;-78
2022/11/15 17:06:34;;;;;;;13.05;8.30;;;;;;;;;;10475143;28;20051;-75
2022/11/15 17:11:35;;;;;;;13.37;9.10;;;;;;;;;;10480503;28;20032;-75
2022/11/15 17:16:41;;;;;;;14.43;9.45;;;;;;;;;;10474131;28;20282;-76
2022/11/15 17:21:42;;;;;;;7.70;5.82;;;;;;;;;;10476669;28;20037;-80
2022/11/15 17:26:43;;;;;;;7.50;6.00;;;;;;;;;;10465624;28;20639;-78
2022/11/15 17:31:44;;;;;;;10.13;6.17;;;;;;;;;;10457165;28;20043;-82
2022/11/15 17:36:46;;;;;;;8.07;6.05;;;;;;;;;;10470109;28;20361;-78
2022/11/15 17:41:48;;;;;;;10.50;5.82;;;;;;;;;;10496095;28;20029;-77
2022/11/15 17:46:48;;;;;;;10.93;7.25;;;;;;;;;;10502852;28;20084;-78
2022/11/15 17:51:52;;;;;;;6.63;5.10;;;;;;;;;;10481515;28;20127;-78
2022/11/15 17:56:52;;;;;;;9.95;5.85;;;;;;;;;;10491650;28;20493;-79
2022/11/15 18:01:52;;;;;;;13.47;7.17;;;;;;;;;;10460907;28;20089;-80
2022/11/15 18:06:54;;;;;;;8.65;5.45;;;;;;;;;;10480044;28;20350;-80
2022/11/15 18:11:54;;;;;;;6.45;4.35;;;;;;;;;;10494605;28;20112;-78
2022/11/15 18:16:55;;;;;;;6.50;4.83;;;;;;;;;;10485142;28;20108;-80
2022/11/15 18:21:55;;;;;;;7.00;5.15;;;;;;;;;;10473251;28;20279;-79
2022/11/15 18:26:56;;;;;;;7.53;4.73;;;;;;;;;;10468437;28;20049;-80
2022/11/15 18:31:57;;;;;;;7.88;4.50;;;;;;;;;;10470543;28;20314;-78
2022/11/15 18:36:58;;;;;;;6.00;4.40;;;;;;;;;;10482599;28;20045;-78
2022/11/15 18:41:59;;;;;;;5.78;4.78;;;;;;;;;;10486723;28;20427;-79
2022/11/15 18:46:59;;;;;;;5.70;4.50;;;;;;;;;;10482666;28;20036;-81
2022/11/15 18:51:59;;;;;;;7.90;5.03;;;;;;;;;;10485468;28;20044;-81
2022/11/15 18:57:00;;;;;;;7.50;5.68;;;;;;;;;;10486504;28;20286;-78
2022/11/15 19:02:01;;;;;;;10.93;6.85;;;;;;;;;;10482990;28;20040;-77
2022/11/15 19:07:01;;;;;;;9.13;6.53;;;;;;;;;;10487518;28;20036;-78
2022/11/15 19:12:02;;;;;;;11.35;7.57;;;;;;;;;;10454652;28;20032;-79
2022/11/15 19:17:03;;;;;;;13.50;8.52;;;;;;;;;;10471355;28;20437;-79
2022/11/15 19:22:04;;;;;;;10.68;8.38;;;;;;;;;;10469716;28;20036;-82
2022/11/15 19:27:04;;;;;;;10.67;7.17;;;;;;;;;;10455905;28;20409;-79
2022/11/15 19:32:05;;;;;;;11.68;7.57;;;;;;;;;;10488786;28;20278;-77
2022/11/15 19:37:05;;;;;;;10.88;7.28;;;;;;;;;;10469178;28;20039;-78
2022/11/15 19:42:05;;;;;;;10.27;7.35;;;;;;;;;;10465397;28;20033;-80
2022/11/15 19:47:08;;;;;;;11.80;7.22;;;;;;;;;;10485897;28;20346;-80
2022/11/15 19:52:10;;;;;;;11.27;7.47;;;;;;;;;;10465229;28;20488;-79
2022/11/15 19:57:10;;;;;;;12.75;8.07;;;;;;;;;;10488676;28;20079;-80
2022/11/15 20:02:12;;;;;;;12.73;7.85;;;;;;;;;;10472149;28;20029;-77
2022/11/15 20:07:12;;;;;;;15.23;10.38;;;;;;;;;;10488187;28;20045;-82
2022/11/15 20:12:14;;;;;;;16.60;10.30;;;;;;;;;;10507112;28;20060;-81
2022/11/15 20:17:14;;;;;;;13.03;9.73;;;;;;;;;;10494308;28;20033;-80
2022/11/15 20:22:16;;;;;;;14.40;9.40;;;;;;;;;;10511182;28;20339;-80
2022/11/15 20:27:17;;;;;;;12.98;9.60;;;;;;;;;;10509540;28;20306;-81
2022/11/15 20:32:17;;;;;;;13.13;9.13;;;;;;;;;;10515021;28;20009;-79
2022/11/15 20:37:18;;;;;;;13.35;9.40;;;;;;;;;;10521764;28;20044;-79
2022/11/15 20:42:19;;;;;;;15.35;9.32;;;;;;;;;;10528587;28;20013;-79
2022/11/15 20:47:19;;;;;;;14.77;10.23;;;;;;;;;;10535828;28;20059;-80
2022/11/15 20:52:20;;;;;;;14.27;10.85;;;;;;;;;;10509031;28;20111;-80
2022/11/15 20:57:21;;;;;;;14.93;10.20;;;;;;;;;;10500198;28;20024;-79
2022/11/15 21:02:22;;;;;;;13.20;9.23;;;;;;;;;;10489758;28;20064;-78
2022/11/15 21:07:23;;;;;;;14.60;9.53;;;;;;;;;;10499086;28;20127;-81
2022/11/15 21:12:23;;;;;;;11.35;9.07;;;;;;;;;;10484420;28;20318;-81
2022/11/15 21:17:26;;;;;;;9.75;7.70;;;;;;;;;;10489169;28;20049;-79
2022/11/15 21:22:26;;;;;;;10.32;7.55;;;;;;;;;;10500560;28;20070;-78
2022/11/15 21:27:27;;;;;;;9.38;7.60;;;;;;;;;;10475188;28;20095;-79
2022/11/15 21:32:29;;;;;;;10.77;7.20;;;;;;;;;;10464411;28;20476;-79
2022/11/15 21:37:31;;;;;;;12.10;7.68;;;;;;;;;;10465482;28;20105;-80
2022/11/15 21:42:31;;;;;;;9.48;7.70;;;;;;;;;;10442953;28;20814;-79
2022/11/15 21:47:33;;;;;;;8.50;6.90;;;;;;;;;;10463440;28;20106;-80
2022/11/15 21:52:33;;;;;;;11.02;7.90;;;;;;;;;;10457850;28;20381;-81
2022/11/15 21:57:34;;;;;;;12.82;8.05;;;;;;;;;;10486386;28;20079;-79
2022/11/15 22:02:34;;;;;;;10.57;7.90;;;;;;;;;;10474954;28;20024;-78
2022/11/15 22:07:34;;;;;;;11.07;8.00;;;;;;;;;;10465676;28;20083;-80
2022/11/15 22:12:35;;;;;;;13.33;9.23;;;;;;;;;;10492154;28;20283;-79
2022/11/15 22:22:56;;;;;;;13.05;8.57;;;;;;;;;;10475420;28;20033;-77
2022/11/15 22:27:56;;;;;;;10.77;8.70;;;;;;;;;;10475395;28;20044;-78
2022/11/15 22:32:57;;;;;;;12.80;9.48;;;;;;;;;;10478841;28;20040;-78
2022/11/15 22:37:57;;;;;;;13.43;8.50;;;;;;;;;;10471902;28;20449;-79
2022/11/15 22:42:58;;;;;;;13.52;9.15;;;;;;;;;;10472705;28;20817;-79
2022/11/15 22:47:58;;;;;;;12.75;8.63;;;;;;;;;;10465496;28;20064;-78
2022/11/15 22:52:58;;;;;;;12.52;8.43;;;;;;;;;;10482286;28;20040;-78
2022/11/15 22:57:59;;;;;;;11.93;8.50;;;;;;;;;;10486405;28;20112;-77
2022/11/15 23:03:00;;;;;;;16.02;8.80;;;;;;;;;;10520277;28;20096;-79
2022/11/15 23:08:00;;;;;;;12.23;8.82;;;;;;;;;;10513099;28;20040;-77
2022/11/15 23:13:17;;;;;;;14.30;8.95;;;;;;;;;;10493515;28;20041;-78
2022/11/15 23:18:19;;;;;;;11.73;8.57;;;;;;;;;;10482427;28;20048;-78
2022/11/15 23:23:20;;;;;;;13.15;8.48;;;;;;;;;;10494570;28;20072;-79
2022/11/15 23:28:20;;;;;;;16.35;9.23;;;;;;;;;;10502488;28;20048;-78
2022/11/15 23:38:41;;;;;;;14.68;8.75;;;;;;;;;;10465425;28;20028;-78
2022/11/15 23:43:44;;;;;;;14.07;9.18;;;;;;;;;;10496170;28;20028;-78
2022/11/15 23:48:45;;;;;;;12.33;8.40;;;;;;;;;;10485666;28;20033;-79
2022/11/15 23:53:45;;;;;;;11.57;8.77;;;;;;;;;;10464025;28;20276;-81
2022/11/15 23:58:48;;;;;;;14.50;10.18;;;;;;;;;;10466541;28;20044;-81
